createdAt,value
2023-11-24T00:02:26.655Z,10.93
2023-11-24T00:08:28.924Z,12.15
2023-11-24T00:14:31.191Z,11.68
2023-11-24T00:20:33.702Z,9.75
2023-11-24T00:26:36.174Z,11.13
2023-11-24T00:38:41.047Z,12.57
2023-11-24T00:44:43.579Z,13.10
2023-11-24T00:50:45.922Z,13.55
2023-11-24T00:56:48.232Z,12.90
2023-11-24T01:02:51.214Z,13.32
2023-11-24T01:08:53.779Z,13.88
2023-11-24T01:14:57.259Z,12.07
2023-11-24T01:21:00.143Z,11.82
2023-11-24T01:27:04.031Z,14.20
2023-11-24T01:33:06.552Z,11.55
2023-11-24T01:39:11.980Z,14.15
2023-11-24T01:45:14.385Z,12.25
2023-11-24T01:51:17.272Z,12.45
2023-11-24T01:57:19.573Z,13.85
2023-11-24T02:03:22.059Z,12.77
2023-11-24T02:09:25.572Z,13.23
2023-11-24T02:15:28.001Z,11.90
2023-11-24T02:21:30.546Z,11.95
2023-11-24T02:27:33.019Z,12.27
2023-11-24T02:33:35.850Z,11.13
2023-11-24T02:39:38.242Z,11.50
2023-11-24T02:45:41.852Z,10.98
2023-11-24T02:51:45.528Z,11.18
2023-11-24T02:57:50.024Z,10.88
2023-11-24T03:03:53.872Z,11.07
2023-11-24T03:09:56.456Z,10.65
2023-11-24T03:15:58.994Z,10.25
2023-11-24T03:28:04.096Z,9.02
2023-11-24T03:34:06.965Z,11.18
2023-11-24T03:40:10.860Z,9.75
2023-11-24T03:46:13.858Z,10.40
2023-11-24T03:52:16.787Z,10.55
2023-11-24T03:58:19.346Z,11.07
2023-11-24T04:10:25.323Z,10.15
2023-11-24T04:16:27.847Z,10.43
2023-11-24T04:28:32.318Z,9.90
2023-11-24T04:34:34.757Z,9.00
2023-11-24T04:46:39.526Z,10.35
2023-11-24T04:52:41.865Z,9.23
2023-11-24T04:58:44.814Z,8.20
2023-11-24T05:04:48.500Z,9.27
2023-11-24T05:10:50.781Z,9.68
2023-11-24T05:16:53.128Z,8.88
2023-11-24T05:22:55.516Z,10.68
2023-11-24T05:28:57.733Z,10.70
2023-11-24T05:35:00.155Z,9.93
2023-11-24T05:41:02.552Z,8.43
2023-11-24T05:47:06.335Z,8.02
2023-11-24T05:53:08.720Z,7.97
2023-11-24T05:59:11.074Z,8.77
2023-11-24T06:05:14.030Z,7.13
2023-11-24T06:11:19.549Z,7.72
2023-11-24T06:17:21.834Z,7.65
2023-11-24T06:23:24.335Z,6.72
2023-11-24T06:35:28.931Z,7.30
2023-11-24T06:41:31.330Z,6.30
2023-11-24T06:47:33.871Z,8.43
2023-11-24T06:53:36.318Z,7.05
2023-11-24T06:59:38.901Z,6.40
2023-11-24T07:11:43.832Z,6.72
2023-11-24T07:17:46.453Z,6.30
2023-11-24T07:29:50.975Z,6.88
2023-11-24T07:35:53.643Z,5.47
2023-11-24T07:48:02.078Z,5.22
2023-11-24T07:54:04.960Z,4.10
2023-11-24T08:00:12.181Z,5.75
2023-11-24T08:06:16.685Z,4.68
2023-11-24T08:12:22.804Z,4.32
2023-11-24T08:18:26.221Z,4.43
2023-11-24T08:24:28.792Z,5.65
2023-11-24T08:30:33.745Z,5.43
2023-11-24T08:36:36.626Z,5.22
2023-11-24T08:42:40.258Z,4.28
2023-11-24T08:48:42.647Z,4.63
2023-11-24T08:54:44.993Z,10.05
2023-11-24T09:00:48.404Z,5.40
2023-11-24T09:06:51.843Z,5.15
2023-11-24T09:12:54.265Z,9.07
2023-11-24T09:19:00.928Z,5.90
2023-11-24T09:25:04.059Z,9.57
2023-11-24T09:31:10.646Z,7.43
2023-11-24T09:37:13.049Z,5.15
2023-11-24T09:43:15.801Z,8.63
2023-11-24T09:49:18.163Z,6.90
2023-11-24T09:55:20.654Z,6.32
2023-11-24T10:01:27.488Z,8.30
2023-11-24T10:07:30.775Z,5.00
2023-11-24T10:13:33.957Z,6.28
2023-11-24T10:19:39.572Z,7.50
2023-11-24T10:25:41.858Z,6.75
2023-11-24T10:31:46.079Z,6.72
2023-11-24T10:37:49.960Z,8.52
2023-11-24T10:43:53.015Z,7.25
2023-11-24T10:50:24.997Z,7.72
2023-11-24T10:56:29.961Z,7.15
2023-11-24T11:02:34.516Z,13.00
2023-11-24T11:08:54.155Z,7.95
2023-11-24T11:14:57.798Z,21.08
2023-11-24T11:21:29.636Z,7.85
2023-11-24T11:27:36.861Z,8.38
2023-11-24T11:33:46.489Z,12.18
2023-11-24T11:40:01.051Z,10.25
2023-11-24T11:46:04.901Z,10.63
2023-11-24T11:52:13.142Z,9.38
2023-11-24T11:58:15.889Z,10.50
2023-11-24T12:04:18.377Z,10.48
2023-11-24T12:10:22.581Z,10.50
2023-11-24T12:16:30.007Z,9.90
2023-11-24T12:22:32.448Z,10.52
2023-11-24T12:28:39.172Z,13.43
2023-11-24T12:34:45.377Z,10.35
2023-11-24T12:40:49.445Z,12.63
2023-11-24T12:46:51.810Z,10.52
2023-11-24T12:52:55.633Z,11.98
2023-11-24T12:59:03.666Z,9.15
2023-11-24T13:05:07.881Z,9.98
2023-11-24T13:11:10.194Z,10.82
2023-11-24T13:17:13.411Z,9.93
2023-11-24T13:23:15.966Z,10.80
2023-11-24T13:29:18.341Z,10.88
2023-11-24T13:35:21.655Z,11.48
2023-11-24T13:41:24.251Z,10.10
2023-11-24T13:47:27.075Z,10.55
2023-11-24T13:53:32.686Z,10.13
2023-11-24T13:59:35.004Z,10.05
2023-11-24T14:05:37.473Z,10.10
2023-11-24T14:11:40.164Z,9.70
2023-11-24T14:23:44.938Z,10.68
2023-11-24T14:29:47.207Z,8.90
2023-11-24T14:35:49.576Z,9.75
2023-11-24T14:41:52.983Z,9.50
2023-11-24T14:47:56.026Z,10.60
2023-11-24T14:54:01.389Z,11.65
2023-11-24T15:00:04.371Z,14.73
2023-11-24T15:06:15.819Z,13.48
2023-11-24T15:12:21.058Z,26.25
2023-11-24T15:18:23.408Z,14.40
2023-11-24T15:24:31.350Z,13.98
2023-11-24T15:30:34.758Z,11.48
2023-11-24T15:36:37.228Z,10.93
2023-11-24T15:42:40.516Z,11.07
2023-11-24T15:48:42.753Z,10.45
2023-11-24T15:54:45.695Z,9.48
2023-11-24T16:00:49.019Z,7.85
2023-11-24T16:06:57.703Z,8.20
2023-11-24T16:13:05.425Z,9.02
2023-11-24T16:19:07.839Z,7.30
2023-11-24T16:25:10.976Z,7.47
2023-11-24T16:31:14.024Z,6.95
2023-11-24T16:37:16.869Z,6.95
2023-11-24T16:43:19.802Z,7.43
2023-11-24T16:49:22.736Z,6.97
2023-11-24T16:55:25.130Z,6.35
2023-11-24T17:01:27.824Z,6.43
2023-11-24T17:13:32.502Z,7.18
2023-11-24T17:19:35.336Z,8.82
2023-11-24T17:25:37.924Z,8.77
2023-11-24T17:31:44.638Z,7.60
2023-11-24T17:37:48.235Z,8.95
2023-11-24T17:43:51.086Z,8.20
2023-11-24T17:49:53.352Z,9.57
2023-11-24T17:55:56.218Z,10.38
2023-11-24T18:02:00.505Z,10.15
2023-11-24T18:08:04.867Z,10.07
2023-11-24T18:14:07.519Z,10.85
2023-11-24T18:20:12.657Z,9.02
2023-11-24T18:26:17.492Z,9.73
2023-11-24T18:32:20.039Z,9.60
2023-11-24T18:38:23.382Z,8.27
2023-11-24T18:44:25.781Z,7.65
2023-11-24T18:50:29.037Z,8.88
2023-11-24T18:56:31.584Z,8.68
2023-11-24T19:02:34.633Z,8.57
2023-11-24T19:08:37.173Z,10.50
2023-11-24T19:14:39.762Z,10.48
2023-11-24T19:20:42.237Z,9.68
2023-11-24T19:32:47.460Z,10.98
2023-11-24T19:38:52.414Z,12.63
2023-11-24T19:44:54.713Z,12.35
2023-11-24T19:50:57.351Z,13.50
2023-11-24T19:57:00.955Z,10.68
2023-11-24T20:03:03.973Z,11.40
2023-11-24T20:09:10.102Z,11.60
2023-11-24T20:15:12.607Z,11.05
2023-11-24T20:21:15.696Z,11.48
2023-11-24T20:27:18.286Z,11.60
2023-11-24T20:33:21.609Z,11.10
2023-11-24T20:39:24.621Z,10.70
2023-11-24T20:45:27.165Z,12.93
2023-11-24T20:51:30.427Z,9.63
2023-11-24T20:57:32.888Z,11.35
2023-11-24T21:03:36.058Z,12.07
2023-11-24T21:09:41.320Z,11.48
2023-11-24T21:15:46.199Z,10.60
2023-11-24T21:21:48.809Z,11.23
2023-11-24T21:27:51.716Z,11.10
2023-11-24T21:33:54.233Z,12.65
2023-11-24T21:40:02.064Z,9.57
2023-11-24T21:46:04.623Z,11.35
2023-11-24T21:52:07.717Z,11.40
2023-11-24T21:58:10.233Z,12.25
2023-11-24T22:04:12.750Z,11.68
2023-11-24T22:16:18.727Z,12.23
2023-11-24T22:22:21.446Z,10.50
2023-11-24T22:34:27.273Z,10.23
2023-11-24T22:40:29.825Z,9.68
2023-11-24T22:46:34.288Z,9.32
2023-11-24T22:52:37.949Z,8.88
2023-11-24T22:58:40.528Z,8.57
2023-11-24T23:04:43.264Z,9.20
2023-11-24T23:10:47.680Z,8.38
2023-11-24T23:16:50.300Z,6.85
2023-11-24T23:28:55.072Z,6.20
2023-11-24T23:34:57.985Z,6.18
2023-11-24T23:41:04.025Z,5.70
2023-11-24T23:47:07.146Z,5.90
2023-11-24T23:53:10.129Z,6.40
2023-11-24T23:59:13.443Z,7.13
